sensor_id;sensor_type;location;lat;lon;timestamp;pressure;altitude;pressure_sealevel;temperature;humidity
69223;BME280;56514;51.816;-0.026;2022-07-06T00:02:22;102133.06;;;16.51;52.84
69223;BME280;56514;51.816;-0.026;2022-07-06T00:05:07;102146.72;;;16.47;53.01
69223;BME280;56514;51.816;-0.026;2022-07-06T00:07:52;102139.75;;;16.44;53.09
69223;BME280;56514;51.816;-0.026;2022-07-06T00:10:40;102146.13;;;16.42;53.03
69223;BME280;56514;51.816;-0.026;2022-07-06T00:13:26;102147.22;;;16.39;52.78
69223;BME280;56514;51.816;-0.026;2022-07-06T00:16:11;102151.13;;;16.34;53.19
69223;BME280;56514;51.816;-0.026;2022-07-06T00:18:56;102156.47;;;16.34;53.52
69223;BME280;56514;51.816;-0.026;2022-07-06T00:21:41;102157.00;;;16.26;53.28
69223;BME280;56514;51.816;-0.026;2022-07-06T00:24:26;102150.06;;;16.24;54.03
69223;BME280;56514;51.816;-0.026;2022-07-06T00:27:11;102149.63;;;16.17;54.09
69223;BME280;56514;51.816;-0.026;2022-07-06T00:29:55;102147.41;;;16.11;54.06
69223;BME280;56514;51.816;-0.026;2022-07-06T00:32:40;102155.59;;;16.08;53.81
69223;BME280;56514;51.816;-0.026;2022-07-06T00:35:25;102151.34;;;16.06;54.08
69223;BME280;56514;51.816;-0.026;2022-07-06T00:38:10;102139.94;;;16.04;54.24
69223;BME280;56514;51.816;-0.026;2022-07-06T00:40:55;102138.56;;;15.98;54.26
69223;BME280;56514;51.816;-0.026;2022-07-06T00:46:33;102140.66;;;15.93;54.81
69223;BME280;56514;51.816;-0.026;2022-07-06T00:49:19;102147.91;;;15.91;54.42
69223;BME280;56514;51.816;-0.026;2022-07-06T00:52:23;102137.66;;;15.85;54.61
69223;BME280;56514;51.816;-0.026;2022-07-06T00:55:09;102133.41;;;15.82;54.50
69223;BME280;56514;51.816;-0.026;2022-07-06T00:57:55;102137.97;;;15.80;54.48
69223;BME280;56514;51.816;-0.026;2022-07-06T01:00:41;102139.16;;;15.76;55.14
69223;BME280;56514;51.816;-0.026;2022-07-06T01:03:29;102138.50;;;15.73;55.39
69223;BME280;56514;51.816;-0.026;2022-07-06T01:06:14;102136.81;;;15.72;55.63
69223;BME280;56514;51.816;-0.026;2022-07-06T01:09:00;102143.47;;;15.65;55.00
69223;BME280;56514;51.816;-0.026;2022-07-06T01:11:45;102138.44;;;15.60;55.61
69223;BME280;56514;51.816;-0.026;2022-07-06T01:14:31;102142.19;;;15.58;55.51
69223;BME280;56514;51.816;-0.026;2022-07-06T01:17:17;102142.28;;;15.56;55.37
69223;BME280;56514;51.816;-0.026;2022-07-06T01:20:22;102149.59;;;15.53;55.84
69223;BME280;56514;51.816;-0.026;2022-07-06T01:23:07;102147.13;;;15.50;55.88
69223;BME280;56514;51.816;-0.026;2022-07-06T01:25:55;102155.22;;;15.48;55.77
69223;BME280;56514;51.816;-0.026;2022-07-06T01:28:41;102152.75;;;15.45;55.86
69223;BME280;56514;51.816;-0.026;2022-07-06T01:31:26;102148.63;;;15.41;56.20
69223;BME280;56514;51.816;-0.026;2022-07-06T01:34:12;102152.22;;;15.40;56.03
69223;BME280;56514;51.816;-0.026;2022-07-06T01:36:57;102152.47;;;15.36;56.26
69223;BME280;56514;51.816;-0.026;2022-07-06T01:39:41;102147.44;;;15.31;57.09
69223;BME280;56514;51.816;-0.026;2022-07-06T01:42:27;102153.38;;;15.22;56.58
69223;BME280;56514;51.816;-0.026;2022-07-06T01:45:12;102157.00;;;15.21;56.57
69223;BME280;56514;51.816;-0.026;2022-07-06T01:48:00;102154.53;;;15.18;57.03
69223;BME280;56514;51.816;-0.026;2022-07-06T01:50:44;102147.63;;;15.16;57.10
69223;BME280;56514;51.816;-0.026;2022-07-06T01:53:29;102148.66;;;15.13;57.12
69223;BME280;56514;51.816;-0.026;2022-07-06T01:56:14;102151.59;;;15.09;58.13
69223;BME280;56514;51.816;-0.026;2022-07-06T01:58:59;102159.19;;;15.01;57.86
69223;BME280;56514;51.816;-0.026;2022-07-06T02:01:44;102154.19;;;14.96;57.37
69223;BME280;56514;51.816;-0.026;2022-07-06T02:04:29;102157.91;;;14.94;58.34
69223;BME280;56514;51.816;-0.026;2022-07-06T02:07:13;102156.41;;;14.90;58.42
69223;BME280;56514;51.816;-0.026;2022-07-06T02:09:58;102160.75;;;14.91;58.90
69223;BME280;56514;51.816;-0.026;2022-07-06T02:12:43;102157.44;;;14.87;58.90
69223;BME280;56514;51.816;-0.026;2022-07-06T02:15:28;102153.47;;;14.80;59.15
69223;BME280;56514;51.816;-0.026;2022-07-06T02:18:13;102162.47;;;14.78;58.82
69223;BME280;56514;51.816;-0.026;2022-07-06T02:20:58;102155.53;;;14.75;59.49
69223;BME280;56514;51.816;-0.026;2022-07-06T02:23:42;102167.81;;;14.78;59.20
69223;BME280;56514;51.816;-0.026;2022-07-06T02:26:27;102160.66;;;14.78;59.54
69223;BME280;56514;51.816;-0.026;2022-07-06T02:29:12;102162.19;;;14.68;59.29
69223;BME280;56514;51.816;-0.026;2022-07-06T02:31:57;102155.94;;;14.69;59.14
69223;BME280;56514;51.816;-0.026;2022-07-06T02:34:42;102158.78;;;14.66;59.92
69223;BME280;56514;51.816;-0.026;2022-07-06T02:37:27;102158.13;;;14.63;60.01
69223;BME280;56514;51.816;-0.026;2022-07-06T02:40:12;102163.59;;;14.60;60.03
69223;BME280;56514;51.816;-0.026;2022-07-06T02:42:57;102145.00;;;14.60;60.15
69223;BME280;56514;51.816;-0.026;2022-07-06T02:45:42;102147.22;;;14.53;60.10
69223;BME280;56514;51.816;-0.026;2022-07-06T02:48:27;102142.94;;;14.51;59.53
69223;BME280;56514;51.816;-0.026;2022-07-06T02:51:11;102150.69;;;14.54;59.45
69223;BME280;56514;51.816;-0.026;2022-07-06T02:53:56;102141.91;;;14.53;59.47
69223;BME280;56514;51.816;-0.026;2022-07-06T02:56:41;102152.53;;;14.53;60.09
69223;BME280;56514;51.816;-0.026;2022-07-06T02:59:26;102148.91;;;14.54;59.31
69223;BME280;56514;51.816;-0.026;2022-07-06T03:02:10;102148.91;;;14.54;59.75
69223;BME280;56514;51.816;-0.026;2022-07-06T03:04:56;102149.78;;;14.55;59.45
69223;BME280;56514;51.816;-0.026;2022-07-06T03:07:41;102149.69;;;14.56;59.09
69223;BME280;56514;51.816;-0.026;2022-07-06T03:10:26;102147.84;;;14.57;58.96
69223;BME280;56514;51.816;-0.026;2022-07-06T03:13:10;102139.59;;;14.61;59.17
69223;BME280;56514;51.816;-0.026;2022-07-06T03:15:55;102139.44;;;14.64;59.01
69223;BME280;56514;51.816;-0.026;2022-07-06T03:18:40;102134.38;;;14.74;58.95
69223;BME280;56514;51.816;-0.026;2022-07-06T03:21:25;102141.47;;;14.87;58.76
69223;BME280;56514;51.816;-0.026;2022-07-06T03:24:10;102150.69;;;14.96;58.40
69223;BME280;56514;51.816;-0.026;2022-07-06T03:26:55;102142.78;;;15.08;58.43
69223;BME280;56514;51.816;-0.026;2022-07-06T03:29:40;102150.19;;;15.17;58.43
69223;BME280;56514;51.816;-0.026;2022-07-06T03:32:25;102145.06;;;15.14;58.42
69223;BME280;56514;51.816;-0.026;2022-07-06T03:35:10;102151.78;;;15.20;58.50
69223;BME280;56514;51.816;-0.026;2022-07-06T03:37:55;102152.06;;;15.15;58.58
69223;BME280;56514;51.816;-0.026;2022-07-06T03:40:41;102154.44;;;15.20;58.64
69223;BME280;56514;51.816;-0.026;2022-07-06T03:43:26;102156.13;;;15.21;58.70
69223;BME280;56514;51.816;-0.026;2022-07-06T03:46:11;102150.50;;;15.25;58.25
69223;BME280;56514;51.816;-0.026;2022-07-06T03:48:55;102135.69;;;15.35;57.61
69223;BME280;56514;51.816;-0.026;2022-07-06T03:51:40;102135.22;;;15.43;58.09
69223;BME280;56514;51.816;-0.026;2022-07-06T03:54:25;102131.09;;;15.51;57.55
69223;BME280;56514;51.816;-0.026;2022-07-06T03:57:10;102132.72;;;15.54;57.57
69223;BME280;56514;51.816;-0.026;2022-07-06T03:59:58;102138.44;;;15.60;57.36
69223;BME280;56514;51.816;-0.026;2022-07-06T04:02:42;102143.81;;;15.73;57.46
69223;BME280;56514;51.816;-0.026;2022-07-06T04:05:27;102144.03;;;15.70;57.42
69223;BME280;56514;51.816;-0.026;2022-07-06T04:08:12;102145.97;;;15.80;57.31
69223;BME280;56514;51.816;-0.026;2022-07-06T04:10:57;102144.72;;;15.86;57.16
69223;BME280;56514;51.816;-0.026;2022-07-06T04:13:42;102150.66;;;15.90;56.99
69223;BME280;56514;51.816;-0.026;2022-07-06T04:16:27;102149.41;;;15.95;56.89
69223;BME280;56514;51.816;-0.026;2022-07-06T04:19:11;102139.38;;;15.99;57.01
69223;BME280;56514;51.816;-0.026;2022-07-06T04:21:56;102141.94;;;16.00;56.84
69223;BME280;56514;51.816;-0.026;2022-07-06T04:24:42;102135.59;;;16.03;56.85
69223;BME280;56514;51.816;-0.026;2022-07-06T04:27:27;102138.25;;;16.03;56.93
69223;BME280;56514;51.816;-0.026;2022-07-06T04:30:12;102134.94;;;16.12;56.71
69223;BME280;56514;51.816;-0.026;2022-07-06T04:32:57;102127.69;;;16.14;56.81
69223;BME280;56514;51.816;-0.026;2022-07-06T04:35:42;102131.75;;;16.07;56.86
69223;BME280;56514;51.816;-0.026;2022-07-06T04:38:27;102140.59;;;16.07;56.85
69223;BME280;56514;51.816;-0.026;2022-07-06T04:41:11;102146.31;;;16.14;57.12
69223;BME280;56514;51.816;-0.026;2022-07-06T04:43:56;102145.38;;;16.15;57.06
69223;BME280;56514;51.816;-0.026;2022-07-06T04:46:41;102154.97;;;16.17;57.00
69223;BME280;56514;51.816;-0.026;2022-07-06T04:49:26;102150.94;;;16.12;57.17
69223;BME280;56514;51.816;-0.026;2022-07-06T04:52:10;102148.78;;;16.17;56.97
69223;BME280;56514;51.816;-0.026;2022-07-06T04:54:55;102149.66;;;16.30;56.54
69223;BME280;56514;51.816;-0.026;2022-07-06T04:57:41;102148.25;;;16.37;56.47
69223;BME280;56514;51.816;-0.026;2022-07-06T05:00:26;102149.47;;;16.45;56.50
69223;BME280;56514;51.816;-0.026;2022-07-06T05:03:10;102138.59;;;16.48;56.68
69223;BME280;56514;51.816;-0.026;2022-07-06T05:05:55;102149.88;;;16.64;56.10
69223;BME280;56514;51.816;-0.026;2022-07-06T05:08:41;102137.28;;;16.79;55.92
69223;BME280;56514;51.816;-0.026;2022-07-06T05:11:26;102135.44;;;16.92;55.72
69223;BME280;56514;51.816;-0.026;2022-07-06T05:14:12;102145.97;;;17.06;55.28
69223;BME280;56514;51.816;-0.026;2022-07-06T05:16:57;102145.75;;;17.09;55.26
69223;BME280;56514;51.816;-0.026;2022-07-06T05:19:42;102144.22;;;17.17;55.90
69223;BME280;56514;51.816;-0.026;2022-07-06T05:22:27;102135.19;;;17.31;55.77
69223;BME280;56514;51.816;-0.026;2022-07-06T05:25:12;102148.19;;;17.48;55.21
69223;BME280;56514;51.816;-0.026;2022-07-06T05:27:57;102148.75;;;17.64;55.25
69223;BME280;56514;51.816;-0.026;2022-07-06T05:30:42;102146.84;;;17.77;54.82
69223;BME280;56514;51.816;-0.026;2022-07-06T05:33:27;102145.34;;;17.97;54.76
69223;BME280;56514;51.816;-0.026;2022-07-06T05:36:13;102151.06;;;18.03;54.26
69223;BME280;56514;51.816;-0.026;2022-07-06T05:38:57;102141.13;;;18.16;54.36
69223;BME280;56514;51.816;-0.026;2022-07-06T05:41:42;102141.28;;;18.26;54.20
69223;BME280;56514;51.816;-0.026;2022-07-06T05:44:27;102144.69;;;18.28;54.05
69223;BME280;56514;51.816;-0.026;2022-07-06T05:47:12;102142.13;;;18.26;54.13
69223;BME280;56514;51.816;-0.026;2022-07-06T05:50:16;102141.13;;;18.16;53.98
69223;BME280;56514;51.816;-0.026;2022-07-06T05:53:04;102130.25;;;18.19;54.09
69223;BME280;56514;51.816;-0.026;2022-07-06T05:55:49;102130.97;;;18.32;54.30
69223;BME280;56514;51.816;-0.026;2022-07-06T05:58:34;102143.41;;;18.44;53.81
69223;BME280;56514;51.816;-0.026;2022-07-06T06:01:19;102150.31;;;18.47;53.09
69223;BME280;56514;51.816;-0.026;2022-07-06T06:04:04;102153.81;;;18.36;53.22
69223;BME280;56514;51.816;-0.026;2022-07-06T06:06:49;102155.63;;;18.25;53.78
69223;BME280;56514;51.816;-0.026;2022-07-06T06:09:33;102147.44;;;18.15;53.75
69223;BME280;56514;51.816;-0.026;2022-07-06T06:12:18;102156.22;;;18.17;53.86
69223;BME280;56514;51.816;-0.026;2022-07-06T06:15:04;102165.19;;;18.27;53.95
69223;BME280;56514;51.816;-0.026;2022-07-06T06:17:49;102159.75;;;18.29;53.91
69223;BME280;56514;51.816;-0.026;2022-07-06T06:20:34;102166.34;;;18.36;53.56
69223;BME280;56514;51.816;-0.026;2022-07-06T06:23:19;102169.63;;;18.39;53.57
69223;BME280;56514;51.816;-0.026;2022-07-06T06:26:04;102166.69;;;18.31;53.99
69223;BME280;56514;51.816;-0.026;2022-07-06T06:28:49;102167.28;;;18.35;53.88
69223;BME280;56514;51.816;-0.026;2022-07-06T06:31:34;102166.94;;;18.39;54.32
69223;BME280;56514;51.816;-0.026;2022-07-06T06:34:19;102175.97;;;18.49;53.65
69223;BME280;56514;51.816;-0.026;2022-07-06T06:37:05;102173.09;;;18.63;53.74
69223;BME280;56514;51.816;-0.026;2022-07-06T06:39:50;102175.13;;;18.82;52.87
69223;BME280;56514;51.816;-0.026;2022-07-06T06:42:36;102174.75;;;18.86;52.96
69223;BME280;56514;51.816;-0.026;2022-07-06T06:45:22;102166.00;;;19.06;52.90
69223;BME280;56514;51.816;-0.026;2022-07-06T06:48:07;102164.75;;;19.44;52.18
69223;BME280;56514;51.816;-0.026;2022-07-06T06:50:51;102157.78;;;19.84;51.34
69223;BME280;56514;51.816;-0.026;2022-07-06T06:53:36;102155.22;;;20.14;50.51
69223;BME280;56514;51.816;-0.026;2022-07-06T06:56:21;102164.28;;;20.43;49.63
69223;BME280;56514;51.816;-0.026;2022-07-06T06:59:06;102167.84;;;20.53;49.33
69223;BME280;56514;51.816;-0.026;2022-07-06T07:01:51;102155.06;;;20.36;50.03
69223;BME280;56514;51.816;-0.026;2022-07-06T07:04:35;102159.72;;;20.34;50.45
69223;BME280;56514;51.816;-0.026;2022-07-06T07:07:20;102172.75;;;20.07;51.33
69223;BME280;56514;51.816;-0.026;2022-07-06T07:10:05;102166.22;;;19.79;52.53
69223;BME280;56514;51.816;-0.026;2022-07-06T07:12:51;102181.31;;;19.69;53.27
69223;BME280;56514;51.816;-0.026;2022-07-06T07:15:36;102180.97;;;19.63;53.86
69223;BME280;56514;51.816;-0.026;2022-07-06T07:18:21;102184.28;;;19.55;53.85
69223;BME280;56514;51.816;-0.026;2022-07-06T07:21:05;102184.41;;;19.54;54.54
69223;BME280;56514;51.816;-0.026;2022-07-06T07:23:51;102164.84;;;19.53;54.74
69223;BME280;56514;51.816;-0.026;2022-07-06T07:26:36;102166.78;;;19.51;54.95
69223;BME280;56514;51.816;-0.026;2022-07-06T07:29:21;102150.50;;;19.75;54.51
69223;BME280;56514;51.816;-0.026;2022-07-06T07:32:06;102153.41;;;20.03;53.81
69223;BME280;56514;51.816;-0.026;2022-07-06T07:34:51;102153.97;;;20.18;53.91
69223;BME280;56514;51.816;-0.026;2022-07-06T07:37:36;102151.50;;;20.56;53.60
69223;BME280;56514;51.816;-0.026;2022-07-06T07:40:21;102135.50;;;21.05;52.51
69223;BME280;56514;51.816;-0.026;2022-07-06T07:43:07;102135.69;;;21.32;51.86
69223;BME280;56514;51.816;-0.026;2022-07-06T07:45:51;102126.97;;;21.59;51.59
69223;BME280;56514;51.816;-0.026;2022-07-06T07:48:36;102127.25;;;21.84;50.98
69223;BME280;56514;51.816;-0.026;2022-07-06T07:51:21;102121.56;;;22.06;50.03
69223;BME280;56514;51.816;-0.026;2022-07-06T07:54:06;102130.34;;;22.08;50.30
69223;BME280;56514;51.816;-0.026;2022-07-06T07:56:51;102136.28;;;22.02;50.67
69223;BME280;56514;51.816;-0.026;2022-07-06T07:59:36;102134.91;;;21.89;50.84
69223;BME280;56514;51.816;-0.026;2022-07-06T08:02:21;102128.97;;;21.76;51.60
69223;BME280;56514;51.816;-0.026;2022-07-06T08:05:06;102134.59;;;21.73;51.28
69223;BME280;56514;51.816;-0.026;2022-07-06T08:07:51;102139.41;;;21.88;51.53
69223;BME280;56514;51.816;-0.026;2022-07-06T08:10:36;102126.50;;;22.20;50.61
69223;BME280;56514;51.816;-0.026;2022-07-06T08:13:21;102122.31;;;22.55;50.35
69223;BME280;56514;51.816;-0.026;2022-07-06T08:16:06;102121.78;;;22.78;49.08
69223;BME280;56514;51.816;-0.026;2022-07-06T08:18:51;102115.91;;;22.65;49.67
69223;BME280;56514;51.816;-0.026;2022-07-06T08:21:36;102117.84;;;22.73;49.63
69223;BME280;56514;51.816;-0.026;2022-07-06T08:24:21;102112.47;;;22.73;49.28
69223;BME280;56514;51.816;-0.026;2022-07-06T08:27:05;102119.97;;;22.69;49.48
69223;BME280;56514;51.816;-0.026;2022-07-06T08:29:50;102119.97;;;22.69;49.29
69223;BME280;56514;51.816;-0.026;2022-07-06T08:32:42;102121.31;;;22.83;49.13
69223;BME280;56514;51.816;-0.026;2022-07-06T08:35:28;102107.78;;;23.02;48.98
69223;BME280;56514;51.816;-0.026;2022-07-06T08:38:13;102119.09;;;23.32;48.03
69223;BME280;56514;51.816;-0.026;2022-07-06T08:40:58;102107.16;;;23.35;47.68
69223;BME280;56514;51.816;-0.026;2022-07-06T08:43:43;102107.63;;;23.30;47.75
69223;BME280;56514;51.816;-0.026;2022-07-06T08:46:29;102099.25;;;23.24;47.88
69223;BME280;56514;51.816;-0.026;2022-07-06T08:49:17;102101.28;;;23.22;48.14
69223;BME280;56514;51.816;-0.026;2022-07-06T08:52:04;102108.22;;;23.24;47.95
69223;BME280;56514;51.816;-0.026;2022-07-06T08:54:49;102104.63;;;23.33;48.04
69223;BME280;56514;51.816;-0.026;2022-07-06T08:57:35;102100.06;;;23.69;47.58
69223;BME280;56514;51.816;-0.026;2022-07-06T09:00:20;102109.75;;;23.79;47.52
69223;BME280;56514;51.816;-0.026;2022-07-06T09:03:05;102112.19;;;24.08;46.55
69223;BME280;56514;51.816;-0.026;2022-07-06T09:05:52;102108.63;;;24.25;45.67
69223;BME280;56514;51.816;-0.026;2022-07-06T09:08:41;102099.19;;;24.29;46.38
69223;BME280;56514;51.816;-0.026;2022-07-06T09:11:26;102089.34;;;24.71;44.96
69223;BME280;56514;51.816;-0.026;2022-07-06T09:14:11;102100.69;;;24.57;44.97
69223;BME280;56514;51.816;-0.026;2022-07-06T09:17:06;102105.59;;;24.02;46.24
69223;BME280;56514;51.816;-0.026;2022-07-06T09:19:51;102093.41;;;23.98;46.38
69223;BME280;56514;51.816;-0.026;2022-07-06T09:22:37;102098.97;;;23.97;46.99
69223;BME280;56514;51.816;-0.026;2022-07-06T09:25:22;102100.56;;;24.33;46.18
69223;BME280;56514;51.816;-0.026;2022-07-06T09:28:08;102092.78;;;24.56;45.34
69223;BME280;56514;51.816;-0.026;2022-07-06T09:30:54;102098.59;;;24.43;46.32
69223;BME280;56514;51.816;-0.026;2022-07-06T09:36:46;102104.00;;;24.43;45.44
69223;BME280;56514;51.816;-0.026;2022-07-06T09:39:31;102100.53;;;24.25;46.39
69223;BME280;56514;51.816;-0.026;2022-07-06T09:42:24;102097.56;;;24.10;46.45
69223;BME280;56514;51.816;-0.026;2022-07-06T09:45:09;102092.09;;;24.28;45.98
69223;BME280;56514;51.816;-0.026;2022-07-06T09:47:54;102090.81;;;24.40;45.80
69223;BME280;56514;51.816;-0.026;2022-07-06T09:50:44;102088.25;;;24.64;45.32
69223;BME280;56514;51.816;-0.026;2022-07-06T09:53:30;102087.28;;;24.65;45.40
69223;BME280;56514;51.816;-0.026;2022-07-06T09:56:17;102084.34;;;24.59;45.96
69223;BME280;56514;51.816;-0.026;2022-07-06T09:59:13;102103.31;;;24.75;44.79
69223;BME280;56514;51.816;-0.026;2022-07-06T10:02:06;102102.19;;;24.85;44.74
69223;BME280;56514;51.816;-0.026;2022-07-06T10:04:53;102087.22;;;24.91;44.88
69223;BME280;56514;51.816;-0.026;2022-07-06T10:07:45;102083.53;;;25.16;44.32
69223;BME280;56514;51.816;-0.026;2022-07-06T10:10:36;102089.28;;;25.13;43.65
69223;BME280;56514;51.816;-0.026;2022-07-06T10:13:21;102083.97;;;24.87;44.21
69223;BME280;56514;51.816;-0.026;2022-07-06T10:16:09;102081.97;;;24.89;45.21
69223;BME280;56514;51.816;-0.026;2022-07-06T10:18:55;102075.00;;;25.36;42.98
69223;BME280;56514;51.816;-0.026;2022-07-06T10:21:43;102068.28;;;25.56;43.54
69223;BME280;56514;51.816;-0.026;2022-07-06T10:24:29;102070.97;;;26.13;42.11
69223;BME280;56514;51.816;-0.026;2022-07-06T10:27:15;102067.44;;;26.59;41.00
69223;BME280;56514;51.816;-0.026;2022-07-06T10:30:01;102067.91;;;26.62;40.88
69223;BME280;56514;51.816;-0.026;2022-07-06T10:32:48;102073.81;;;26.74;40.43
69223;BME280;56514;51.816;-0.026;2022-07-06T10:35:33;102068.41;;;26.74;40.65
69223;BME280;56514;51.816;-0.026;2022-07-06T10:38:18;102082.13;;;27.03;40.39
69223;BME280;56514;51.816;-0.026;2022-07-06T10:41:05;102075.09;;;26.94;39.72
69223;BME280;56514;51.816;-0.026;2022-07-06T10:43:51;102074.19;;;27.01;39.59
69223;BME280;56514;51.816;-0.026;2022-07-06T10:46:35;102074.56;;;27.21;38.80
69223;BME280;56514;51.816;-0.026;2022-07-06T10:49:23;102066.00;;;27.09;39.65
69223;BME280;56514;51.816;-0.026;2022-07-06T10:52:09;102057.38;;;27.36;39.14
69223;BME280;56514;51.816;-0.026;2022-07-06T10:54:56;102054.03;;;27.49;38.19
69223;BME280;56514;51.816;-0.026;2022-07-06T10:57:52;102059.84;;;27.46;38.15
69223;BME280;56514;51.816;-0.026;2022-07-06T11:00:54;102055.75;;;27.50;38.17
69223;BME280;56514;51.816;-0.026;2022-07-06T11:03:44;102049.28;;;27.51;38.40
69223;BME280;56514;51.816;-0.026;2022-07-06T11:06:33;102040.84;;;27.46;37.83
69223;BME280;56514;51.816;-0.026;2022-07-06T11:09:18;102044.94;;;27.19;38.95
69223;BME280;56514;51.816;-0.026;2022-07-06T11:12:15;102039.31;;;27.29;38.80
69223;BME280;56514;51.816;-0.026;2022-07-06T11:15:01;102045.06;;;27.71;38.12
69223;BME280;56514;51.816;-0.026;2022-07-06T11:18:10;102059.41;;;27.57;37.24
69223;BME280;56514;51.816;-0.026;2022-07-06T11:21:17;102051.84;;;27.22;38.13
69223;BME280;56514;51.816;-0.026;2022-07-06T11:24:05;102049.81;;;27.32;38.82
69223;BME280;56514;51.816;-0.026;2022-07-06T11:26:51;102055.25;;;27.47;37.71
69223;BME280;56514;51.816;-0.026;2022-07-06T11:29:37;102041.91;;;27.14;38.59
69223;BME280;56514;51.816;-0.026;2022-07-06T11:32:25;102052.56;;;27.16;39.18
69223;BME280;56514;51.816;-0.026;2022-07-06T11:35:10;102053.50;;;27.31;38.96
69223;BME280;56514;51.816;-0.026;2022-07-06T11:37:55;102060.91;;;27.60;37.68
69223;BME280;56514;51.816;-0.026;2022-07-06T11:40:40;102067.63;;;27.18;38.47
69223;BME280;56514;51.816;-0.026;2022-07-06T11:43:25;102057.44;;;26.67;39.02
69223;BME280;56514;51.816;-0.026;2022-07-06T11:46:32;102048.97;;;26.16;40.53
69223;BME280;56514;51.816;-0.026;2022-07-06T11:49:21;102046.28;;;26.00;41.21
69223;BME280;56514;51.816;-0.026;2022-07-06T11:52:10;102047.25;;;26.23;41.17
69223;BME280;56514;51.816;-0.026;2022-07-06T11:54:59;102052.53;;;26.55;39.74
69223;BME280;56514;51.816;-0.026;2022-07-06T11:57:45;102053.50;;;26.70;39.17
69223;BME280;56514;51.816;-0.026;2022-07-06T12:00:30;102040.97;;;26.77;39.06
69223;BME280;56514;51.816;-0.026;2022-07-06T12:03:15;102049.38;;;26.82;39.25
69223;BME280;56514;51.816;-0.026;2022-07-06T12:06:03;102049.75;;;26.79;39.09
69223;BME280;56514;51.816;-0.026;2022-07-06T12:08:52;102047.63;;;26.58;39.86
69223;BME280;56514;51.816;-0.026;2022-07-06T12:11:39;102036.31;;;26.63;38.96
69223;BME280;56514;51.816;-0.026;2022-07-06T12:14:25;102028.84;;;26.57;39.41
69223;BME280;56514;51.816;-0.026;2022-07-06T12:17:13;102030.25;;;26.83;39.72
69223;BME280;56514;51.816;-0.026;2022-07-06T12:19:58;102037.81;;;27.18;38.51
69223;BME280;56514;51.816;-0.026;2022-07-06T12:22:43;102035.56;;;27.53;37.51
69223;BME280;56514;51.816;-0.026;2022-07-06T12:25:32;102026.50;;;27.60;37.21
69223;BME280;56514;51.816;-0.026;2022-07-06T12:28:22;102027.38;;;27.75;37.00
69223;BME280;56514;51.816;-0.026;2022-07-06T12:31:07;102034.22;;;27.71;37.24
69223;BME280;56514;51.816;-0.026;2022-07-06T12:33:58;102029.22;;;27.60;37.20
69223;BME280;56514;51.816;-0.026;2022-07-06T12:37:07;102036.88;;;27.34;37.64
69223;BME280;56514;51.816;-0.026;2022-07-06T12:39:52;102033.59;;;27.16;38.31
69223;BME280;56514;51.816;-0.026;2022-07-06T12:42:45;102037.19;;;27.39;38.18
69223;BME280;56514;51.816;-0.026;2022-07-06T12:45:31;102027.97;;;27.85;36.91
69223;BME280;56514;51.816;-0.026;2022-07-06T12:48:16;102026.88;;;28.38;35.58
69223;BME280;56514;51.816;-0.026;2022-07-06T12:51:01;102038.22;;;28.56;35.59
69223;BME280;56514;51.816;-0.026;2022-07-06T12:53:46;102034.09;;;28.16;35.82
69223;BME280;56514;51.816;-0.026;2022-07-06T12:56:31;102043.84;;;28.11;36.26
69223;BME280;56514;51.816;-0.026;2022-07-06T12:59:22;102047.66;;;28.16;36.00
69223;BME280;56514;51.816;-0.026;2022-07-06T13:02:16;102044.63;;;27.82;36.37
69223;BME280;56514;51.816;-0.026;2022-07-06T13:05:04;102047.28;;;27.22;37.42
69223;BME280;56514;51.816;-0.026;2022-07-06T13:07:50;102044.81;;;27.13;37.60
69223;BME280;56514;51.816;-0.026;2022-07-06T13:10:35;102035.81;;;27.12;38.38
69223;BME280;56514;51.816;-0.026;2022-07-06T13:13:20;102038.63;;;27.04;38.22
69223;BME280;56514;51.816;-0.026;2022-07-06T13:16:05;102025.72;;;27.06;38.24
69223;BME280;56514;51.816;-0.026;2022-07-06T13:18:50;102020.38;;;27.21;37.07
69223;BME280;56514;51.816;-0.026;2022-07-06T13:21:35;102016.25;;;26.80;38.42
69223;BME280;56514;51.816;-0.026;2022-07-06T13:24:20;102023.72;;;26.31;39.33
69223;BME280;56514;51.816;-0.026;2022-07-06T13:27:05;102021.38;;;26.28;39.96
69223;BME280;56514;51.816;-0.026;2022-07-06T13:29:50;102024.31;;;26.49;39.29
69223;BME280;56514;51.816;-0.026;2022-07-06T13:32:34;102027.81;;;26.66;38.49
69223;BME280;56514;51.816;-0.026;2022-07-06T13:35:19;102015.00;;;26.52;38.74
69223;BME280;56514;51.816;-0.026;2022-07-06T13:38:04;102017.34;;;26.55;38.46
69223;BME280;56514;51.816;-0.026;2022-07-06T13:40:49;102005.31;;;26.65;38.27
69223;BME280;56514;51.816;-0.026;2022-07-06T13:43:34;101999.88;;;26.73;38.30
69223;BME280;56514;51.816;-0.026;2022-07-06T13:46:22;102000.19;;;26.78;37.95
69223;BME280;56514;51.816;-0.026;2022-07-06T13:49:07;101994.47;;;26.65;38.83
69223;BME280;56514;51.816;-0.026;2022-07-06T13:51:52;101999.28;;;26.47;39.27
69223;BME280;56514;51.816;-0.026;2022-07-06T13:54:43;101982.44;;;26.98;38.27
69223;BME280;56514;51.816;-0.026;2022-07-06T13:57:28;101986.44;;;27.33;37.54
69223;BME280;56514;51.816;-0.026;2022-07-06T14:00:13;101995.53;;;27.09;37.96
69223;BME280;56514;51.816;-0.026;2022-07-06T14:03:02;101988.13;;;26.81;38.63
69223;BME280;56514;51.816;-0.026;2022-07-06T14:05:47;101994.75;;;26.78;38.31
69223;BME280;56514;51.816;-0.026;2022-07-06T14:08:32;101992.28;;;26.61;38.72
69223;BME280;56514;51.816;-0.026;2022-07-06T14:11:17;101996.66;;;26.70;38.75
69223;BME280;56514;51.816;-0.026;2022-07-06T14:14:02;101991.47;;;26.91;38.00
69223;BME280;56514;51.816;-0.026;2022-07-06T14:16:47;101979.78;;;27.13;37.63
69223;BME280;56514;51.816;-0.026;2022-07-06T14:19:32;101980.81;;;27.12;38.35
69223;BME280;56514;51.816;-0.026;2022-07-06T14:22:17;101974.59;;;27.49;38.08
69223;BME280;56514;51.816;-0.026;2022-07-06T14:25:03;101974.31;;;27.95;36.00